Fédération internationale de Ski
Member Section
Print

OFFICIAL RESULTS

Hemsedal (NOR) 25.04.2017

FIS Race - Ladies' Super G

Race codex : 6104
Valid for FIS Points : YES
1 files available



Jury
TD FIS LANG ROINE SWE
Referee Andreas KOLLENBORG NOR
Assistant Referee Hallgeir VOGNHILL NOR
Chief of Race Kenneth LARSEN NOR
Technical Data
Start Altitude 1280 m.
Finish Altitude 690 m.
Vertical Drop 590 m.
Course Length 0 m.
Homologation Number 12199/11/16
Run 1
Course Setter Christian MITTHASSEL NOR
Number of Gates 35
Start Time 0930
 
Show more info»

Competitors

Display filter form
Rank Bib FIS Code Name Year Nation Total Time Diff. FIS Points
 1  8  426324 MONSEN Marte  2000  NOR   1:10.22     15.69
 2  1  426273 SAETHERENG Hannah  1999  NOR   1:10.64  +0.42  22.15
 3  7  425981 SKJOELD Maren  1993  NOR   1:11.04  +0.82  28.30
 4  13  426257 LIE Kajsa Vickhoff  1998  NOR   1:11.06  +0.84  28.61
 5  6  506584 RAPAPORT Helena  1994  SWE   1:11.09  +0.87  29.07
 6  17  435334 GASIENICA-DANIEL Maryna  1994  POL   1:11.15  +0.93  29.99
 7  10  426187 LYSDAHL Kristin  1996  NOR   1:11.28  +1.06  31.99
 8  25  255367 VILHJALMSDOTTIR Helga Maria  1995  ISL   1:11.39  +1.17  33.68
 9  22  506915 DAHLIN Agnes  1999  SWE   1:11.56  +1.34  36.30
 10  4  506701 HOERNBLAD Lisa  1996  SWE   1:11.62  +1.40  37.22
 11  5  426236 BEKKESTAD Kristiane  1998  NOR   1:11.76  +1.54  39.38
 12  15  426193 STJERNESUND Thea Louise  1996  NOR   1:11.80  +1.58  39.99
 13  21  426254 HAMNES Ingrid  1998  NOR   1:11.87  +1.65  41.07
 14  14  426199 HVAMMEN Guro  1997  NOR   1:11.88  +1.66  41.22
 15  39  506885 TENGBOM Lisa  1998  SWE   1:12.10  +1.88  44.60
 15  2  426262 SELVAAG Josefine  1998  NOR   1:12.10  +1.88  44.60
 17  9  555036 ABOLTINA Agnese  1996  LAT   1:12.11  +1.89  44.76
 18  18  506109 GUNNARSTEDT Rebecca  1991  SWE   1:12.17  +1.95  45.68
 19  11  426293 KUFAAS Mariel  1999  NOR   1:12.24  +2.02  46.76
 20  23  426131 ENGESET Eirin Linnea  1995  NOR   1:12.46  +2.24  50.14
 21  20  506793 GUNNARSTEDT Nadja  1997  SWE   1:12.57  +2.35  51.83
 22  48  426318 TELJE Elise  2000  NOR   1:12.58  +2.36  51.99
 23  12  506860 LUTHMAN Jonna  1998  SWE   1:12.65  +2.43  53.06
 24  40  426311 FALKSETE Ylva Tone  2000  NOR   1:12.71  +2.49  53.99
 25  41  705469 NEMCOVA Klaudia  2000  SVK   1:12.81  +2.59  55.52
 26  16  425921 HAUGEN Kristine Gjelsten  1992  NOR   1:12.83  +2.61  55.83
 27  29  506713 FINN Jennifer  1996  SWE   1:12.86  +2.64  56.29
 28  19  705462 MORAVCIKOVA Sona  1999  SVK   1:13.18  +2.96  61.22
 29  44  426299 VARNE Bergitte  1999  NOR   1:13.21  +2.99  61.68
 30  27  426272 NYBERG Martine Fosmo  1999  NOR   1:13.24  +3.02  62.14
 31  34  426301 HORGEN Catharina Astrup  1999  NOR   1:13.27  +3.05  62.60
 32  47  175056 BROENS Ida Sofie Bunsov  1999  DEN   1:13.35  +3.13  63.83
 33  24  426285 MAARSTOEL Andrine  1999  NOR   1:13.36  +3.14  63.98
 34  43  426276 KINNEBERG Birgit  1999  NOR   1:13.46  +3.24  65.52
 35  32  507011 LOEVBLOM Hilma  2000  SWE   1:13.53  +3.31  66.60
 36  35  426298 OVERAAS Frida  1999  NOR   1:13.55  +3.33  66.91
 37  30  426327 KRISTOFFERSEN Helene  2000  NOR   1:13.59  +3.37  67.52
 38  31  705460 JANCOVA Tereza  1999  SVK   1:13.63  +3.41  68.14
 39  38  426281 AANDAL Marthe Toesse  1999  NOR   1:13.69  +3.47  69.06
 40  59  507023 SCHWALBE Alexandra  2000  SWE   1:13.85  +3.63  71.52
 41  51  185410 MANTYLA Jenny-Juulia  1996  FIN   1:14.04  +3.82  74.44
 42  37  426243 ROEYNSTRAND Elise  1998  NOR   1:14.08  +3.86  75.06
 43  36  506945 LINDBLOM My  1999  SWE   1:14.13  +3.91  75.83
 44  42  426247 STAVSETH Veslemoey Kihle  1998  NOR   1:14.20  +3.98  76.90
 45  49  426309 STAVSETH Emma Kihle  2000  NOR   1:14.27  +4.05  77.98
 46  26  506864 OLSSON Lisa  1998  SWE   1:14.34  +4.12  79.06
 47  69  705475 STRIZENCOVA Michaela  2000  SVK   1:14.53  +4.31  81.98
 48  50  426302 TORGERSEN Astrid Storaker  1999  NOR   1:14.58  +4.36  82.75
 49  33  225641 CLISSOLD Honor  1997  GBR   1:14.61  +4.39  83.21
 50  70  426316 KROGH Madeleine  2000  NOR   1:14.66  +4.44  83.98
 51  57  426325 MELBYE Karen Tjelta  2000  NOR   1:14.73  +4.51  85.05
 52  45  426274 HERDLEVAER Marie Bartnes  1999  NOR   1:15.11  +4.89  90.90
 53  55  426277 LARSEN Andrea Skaaland  1999  NOR   1:15.18  +4.96  91.98
 53  54  426326 MOLTZAU Serine  2000  NOR   1:15.18  +4.96  91.98
 55  61  255403 BIRKISDOTTIR Andrea Bjork  1998  ISL   1:15.31  +5.09  93.98
 56  60  426270 BERGE Ylva  1999  NOR   1:15.88  +5.66  102.74
 57  62  175055 LARSEN Emilie  1999  DEN   1:16.16  +5.94  107.05
 58  53  426305 ROSTADSAND Synne Johanne Eikeland  1999  NOR   1:16.50  +6.28  112.28
 59  67  185465 ENHOLM Anna  2000  FIN   1:16.82  +6.60  117.20
 60  65  426308 KOJEN Aurora  2000  NOR   1:16.96  +6.74  119.35
 61  71  255427 FRIDGEIRSDOTTIR Harpa Maria  2000  ISL   1:17.13  +6.91  121.97
 62  63  395022 JOGEVA Anna Lotta  1999  EST   1:17.83  +7.61  132.73
 63  72  426329 TORGERSEN Mina  2000  NOR   1:19.91  +9.69  164.72
 64  68  426320 GURHOLT Karen Elisabeth  2000  NOR   1:27.25  +17.03  277.62
Did not start 1st run
   56  6295134 BORSATTI Giulia  1999  ITA       
   46  426291 ROEYNSTRAND Anniken  1999  NOR       
   28  426261 SANDEGGEN Saga  1998  NOR       
Did not finish 1st run
   66  507021 ROENNBERG Matilda  2000  SWE       
   58  426323 WEMBSTAD Inni Holm  2000  NOR       
   52  426278 RABO Mina Sofie  1999  NOR       
   3  506890 AXELSSON Fanny  1998  SWE